Aérodrome :
LOGIN :

S'inscrire | Disclaimer

   EN    FR    IT 

 










Légende :    VFR   VFR Marginal   IFR   IFR Intensif   IFR Très Intensif
Visi : 
Plafond : 
>= 8 km
>= 3000ft
5 à 8 km
1000 à 3000 ft
1500m à 5 km
500 à 1000 ft
800 à 1500m
200 à 500 ft
< 800m
< 200 ft
Symboles :   Orages  Brouillard  Fortes neiges  Fortes précipitations  Vent > 20 kt
SIGMETs :   Divers  Orages  Givrage  Turbulence  Onde Orograph.  Cendres Volcan.






- Altitude de l'aérodrome : 28 ft
- Code IATA : SOZ


LFKS - Solenzara

DERNIER METAR :
  • 100930Z AUTO 01015KT CAVOK 16/05 Q1014

METARs EXPIRÉS :
  • 100900Z AUTO 36014KT CAVOK 16/04 Q1013
  • 100830Z AUTO 01012KT CAVOK 15/05 Q1012
  • 100800Z AUTO 35013KT 330V030 CAVOK 14/05 Q1012
  • 100730Z AUTO 35010KT CAVOK 13/04 Q1012
  • 100700Z AUTO 35011KT CAVOK 12/04 Q1011

TAF TAF LFKS
Valide du 10 à 09h jusqu'au 11 à 09h UTC


100800Z 1009/1109 35010KT CAVOK
TEMPO 1009/1010 35010G20KT
TEMPO 1010/1015 36020G30KT
TEMPO 1015/1024 35010G20KT



MET'MAP, la Météo Aéronautique d'un coup d'oeil ! - Copyright ORBIFLY Décembre 2007 - Disclaimer

ORBIFLY MET'MAP TEAM :

Programmation & Développement : Alexandra Zaïnal
Sur une idée originale de : Baudouin d'Aumeries
Assistance à la programmation : Marc-Olivier Méhu
Soutien technique & logistique : Manuel Goepfert

Contact : metmap@orbifly.com




SOURCES & CREDITS :

   NOAA